createdAt,value
2023-02-03T00:00:10.047Z,2.80
2023-02-03T00:03:14.125Z,2.75
2023-02-03T00:06:15.729Z,2.67
2023-02-03T00:09:17.644Z,2.42
2023-02-03T00:12:19.228Z,2.30
2023-02-03T00:15:23.138Z,2.90
2023-02-03T00:18:24.645Z,3.13
2023-02-03T00:21:26.163Z,2.22
2023-02-03T00:24:28.482Z,2.75
2023-02-03T00:27:30.090Z,2.45
2023-02-03T00:30:36.463Z,2.05
2023-02-03T00:33:38.999Z,2.00
2023-02-03T00:36:42.832Z,2.40
2023-02-03T00:39:44.553Z,2.55
2023-02-03T00:42:46.229Z,2.80
2023-02-03T00:45:47.921Z,3.03
2023-02-03T00:48:49.483Z,2.15
2023-02-03T00:51:51.751Z,2.75
2023-02-03T00:54:53.223Z,2.75
2023-02-03T00:57:54.754Z,2.60
2023-02-03T01:00:57.151Z,2.10
2023-02-03T01:04:00.299Z,1.70
2023-02-03T01:07:01.806Z,2.45
2023-02-03T01:10:04.924Z,2.70
2023-02-03T01:13:08.015Z,2.15
2023-02-03T01:16:11.731Z,2.60
2023-02-03T01:19:14.772Z,2.08
2023-02-03T01:22:16.250Z,2.65
2023-02-03T01:25:17.812Z,2.55
2023-02-03T01:28:19.257Z,2.55
2023-02-03T01:31:24.566Z,2.40
2023-02-03T01:34:26.200Z,1.92
2023-02-03T01:37:27.726Z,1.85
2023-02-03T01:40:29.406Z,2.65
2023-02-03T01:43:39.627Z,1.75
2023-02-03T01:46:51.409Z,2.15
2023-02-03T01:50:03.208Z,2.28
2023-02-03T01:53:10.544Z,2.78
2023-02-03T01:56:12.770Z,2.33
2023-02-03T01:59:19.738Z,2.47
2023-02-03T02:02:21.782Z,2.28
2023-02-03T02:05:47.209Z,2.35
2023-02-03T02:08:51.953Z,2.22
2023-02-03T02:11:53.406Z,2.78
2023-02-03T02:14:55.489Z,2.83
2023-02-03T02:18:37.201Z,2.30
2023-02-03T02:21:53.610Z,2.47
2023-02-03T02:25:14.430Z,2.25
2023-02-03T02:28:35.201Z,1.98
2023-02-03T02:31:55.430Z,2.20
2023-02-03T02:35:16.337Z,2.53
2023-02-03T02:38:36.024Z,1.83
2023-02-03T02:41:58.331Z,2.10
2023-02-03T02:45:11.252Z,2.03
2023-02-03T02:48:24.271Z,2.05
2023-02-03T02:51:29.353Z,1.98
2023-02-03T02:54:33.901Z,1.80
2023-02-03T02:57:37.625Z,2.58
2023-02-03T03:00:41.104Z,1.95
2023-02-03T03:03:45.039Z,1.85
2023-02-03T03:06:51.219Z,2.10
2023-02-03T03:09:58.155Z,2.15
2023-02-03T03:13:06.089Z,2.05
2023-02-03T03:16:11.154Z,2.38
2023-02-03T03:19:17.900Z,2.15
2023-02-03T03:22:24.351Z,2.17
2023-02-03T03:25:31.888Z,1.92
2023-02-03T03:28:42.859Z,2.25
2023-02-03T03:31:45.528Z,1.98
2023-02-03T03:34:47.742Z,2.20
2023-02-03T03:38:50.530Z,2.50
2023-02-03T03:42:17.785Z,1.90
2023-02-03T03:45:25.185Z,2.00
2023-02-03T03:48:56.460Z,1.83
2023-02-03T03:52:04.185Z,1.88
2023-02-03T03:55:10.396Z,1.83
2023-02-03T03:58:21.213Z,1.92
2023-02-03T04:01:23.860Z,2.20
2023-02-03T04:04:26.847Z,2.80
2023-02-03T04:07:57.342Z,2.47
2023-02-03T04:10:58.870Z,1.92
2023-02-03T04:14:00.413Z,2.85
2023-02-03T04:17:02.118Z,2.35
2023-02-03T04:20:04.829Z,2.80
2023-02-03T04:23:06.353Z,2.47
2023-02-03T04:26:07.869Z,2.83
2023-02-03T04:29:09.473Z,2.50
2023-02-03T04:32:10.959Z,2.40
2023-02-03T04:35:12.932Z,2.33
2023-02-03T04:38:14.444Z,2.53
2023-02-03T04:41:16.476Z,2.70
2023-02-03T04:44:17.927Z,2.70
2023-02-03T04:47:20.266Z,1.98
2023-02-03T04:50:21.795Z,2.47
2023-02-03T04:53:23.289Z,2.53
2023-02-03T04:56:24.742Z,2.72
2023-02-03T04:59:26.453Z,2.30
2023-02-03T05:02:27.884Z,2.58
2023-02-03T05:05:29.404Z,2.55
2023-02-03T05:08:30.922Z,2.40
2023-02-03T05:11:32.610Z,2.38
2023-02-03T05:14:34.044Z,2.17
2023-02-03T05:17:38.840Z,3.58
2023-02-03T05:20:40.347Z,2.42
2023-02-03T05:23:42.011Z,2.80
2023-02-03T05:26:43.468Z,2.20
2023-02-03T05:29:44.980Z,2.72
2023-02-03T05:32:46.480Z,3.20
2023-02-03T05:35:47.920Z,2.78
2023-02-03T05:38:49.388Z,2.85
2023-02-03T05:41:53.808Z,2.60
2023-02-03T05:44:55.931Z,2.58
2023-02-03T05:47:57.478Z,2.60
2023-02-03T05:50:59.421Z,2.60
2023-02-03T05:54:01.016Z,2.90
2023-02-03T05:57:02.491Z,2.83
2023-02-03T06:00:04.506Z,3.88
2023-02-03T06:03:13.318Z,3.40
2023-02-03T06:06:15.635Z,3.70
2023-02-03T06:09:17.101Z,3.13
2023-02-03T06:12:18.628Z,2.58
2023-02-03T06:15:20.156Z,2.97
2023-02-03T06:18:21.958Z,2.72
2023-02-03T06:21:23.522Z,3.58
2023-02-03T06:24:25.075Z,3.30
2023-02-03T06:27:27.200Z,3.00
2023-02-03T06:30:29.133Z,3.17
2023-02-03T06:33:31.724Z,2.92
2023-02-03T06:36:33.235Z,3.80
2023-02-03T06:39:34.753Z,3.50
2023-02-03T06:42:36.402Z,3.83
2023-02-03T06:45:37.897Z,3.63
2023-02-03T06:48:39.309Z,3.72
2023-02-03T06:51:40.854Z,3.50
2023-02-03T06:54:42.375Z,3.00
2023-02-03T06:57:45.629Z,2.88
2023-02-03T07:00:47.154Z,3.78
2023-02-03T07:03:48.624Z,3.65
2023-02-03T07:06:50.085Z,3.20
2023-02-03T07:09:51.583Z,3.85
2023-02-03T07:12:53.049Z,3.35
2023-02-03T07:15:54.593Z,3.92
2023-02-03T07:18:56.138Z,3.90
2023-02-03T07:21:57.599Z,4.20
2023-02-03T07:24:59.047Z,4.00
2023-02-03T07:28:01.508Z,3.38
2023-02-03T07:31:04.833Z,3.88
2023-02-03T07:34:06.492Z,3.13
2023-02-03T07:37:08.123Z,3.80
2023-02-03T07:40:11.734Z,3.33
2023-02-03T07:43:13.610Z,3.40
2023-02-03T07:46:15.173Z,3.60
2023-02-03T07:49:16.820Z,3.10
2023-02-03T07:52:18.257Z,3.13
2023-02-03T07:55:19.745Z,3.00
2023-02-03T07:58:21.181Z,2.95
2023-02-03T08:01:22.639Z,3.88
2023-02-03T08:04:24.386Z,3.10
2023-02-03T08:07:25.863Z,2.80
2023-02-03T08:10:27.808Z,2.92
2023-02-03T08:13:29.497Z,2.50
2023-02-03T08:16:31.058Z,3.08
2023-02-03T08:19:32.732Z,2.65
2023-02-03T08:22:34.210Z,2.03
2023-02-03T08:25:35.726Z,3.42
2023-02-03T08:28:37.250Z,2.63
2023-02-03T08:31:39.152Z,2.67
2023-02-03T08:34:40.722Z,2.50
2023-02-03T08:37:42.956Z,2.63
2023-02-03T08:40:44.474Z,1.77
2023-02-03T08:43:46.114Z,2.45
2023-02-03T08:46:52.075Z,2.17
2023-02-03T08:49:53.732Z,2.33
2023-02-03T08:52:55.210Z,2.03
2023-02-03T08:55:56.707Z,2.45
2023-02-03T08:58:58.270Z,2.65
2023-02-03T09:01:59.922Z,2.65
2023-02-03T09:05:01.776Z,2.33
2023-02-03T09:08:03.680Z,2.35
2023-02-03T09:11:09.818Z,2.00
2023-02-03T09:14:11.430Z,1.90
2023-02-03T09:17:12.966Z,1.95
2023-02-03T09:20:15.056Z,2.00
2023-02-03T09:23:16.550Z,2.50
2023-02-03T09:26:18.157Z,1.95
2023-02-03T09:29:20.184Z,2.35
2023-02-03T09:32:21.660Z,2.30
2023-02-03T09:35:23.734Z,2.75
2023-02-03T09:38:26.620Z,2.38
2023-02-03T09:41:49.784Z,2.53
2023-02-03T09:45:13.260Z,1.45
2023-02-03T09:48:19.611Z,2.30
2023-02-03T09:51:29.503Z,2.53
2023-02-03T09:54:54.618Z,2.58
2023-02-03T09:58:04.296Z,2.60
2023-02-03T10:01:13.296Z,2.05
2023-02-03T10:04:34.119Z,2.20
2023-02-03T10:07:47.870Z,1.88
2023-02-03T10:11:10.791Z,2.10
2023-02-03T10:14:30.918Z,2.25
2023-02-03T10:17:44.164Z,2.38
2023-02-03T10:20:53.382Z,1.90
2023-02-03T10:23:58.306Z,1.67
2023-02-03T10:26:59.970Z,2.10
2023-02-03T10:30:21.507Z,2.08
2023-02-03T10:33:27.292Z,1.85
2023-02-03T10:36:38.640Z,1.70
2023-02-03T10:39:47.992Z,2.60
2023-02-03T10:43:07.819Z,2.88
2023-02-03T10:46:09.436Z,1.98
2023-02-03T10:49:13.493Z,2.65
2023-02-03T10:55:26.957Z,2.53
2023-02-03T10:58:30.460Z,2.42
2023-02-03T11:01:44.762Z,2.35
2023-02-03T11:04:46.729Z,2.10
2023-02-03T11:07:48.589Z,2.20
2023-02-03T11:10:50.436Z,2.30
2023-02-03T11:14:02.027Z,1.77
2023-02-03T11:17:16.204Z,1.60
2023-02-03T11:20:18.093Z,1.92
2023-02-03T11:23:23.453Z,1.33
2023-02-03T11:26:30.877Z,1.67
2023-02-03T11:30:06.495Z,1.25
2023-02-03T11:33:19.422Z,1.25
2023-02-03T11:36:20.946Z,1.55
2023-02-03T11:39:35.552Z,1.50
2023-02-03T11:42:41.260Z,1.38
2023-02-03T11:45:47.174Z,0.93
2023-02-03T11:49:17.997Z,1.10
2023-02-03T11:52:22.535Z,0.80
2023-02-03T11:55:32.968Z,0.90
2023-02-03T11:58:59.879Z,1.20
2023-02-03T12:02:17.893Z,0.75
2023-02-03T12:05:41.037Z,0.70
2023-02-03T12:08:56.507Z,0.80
2023-02-03T12:12:13.999Z,1.08
2023-02-03T12:15:21.857Z,0.55
2023-02-03T12:18:36.857Z,0.90
2023-02-03T12:21:44.335Z,0.90
2023-02-03T12:24:55.434Z,1.02
2023-02-03T12:28:27.403Z,0.60
2023-02-03T12:31:54.799Z,2.75
2023-02-03T12:35:05.915Z,0.60
2023-02-03T12:38:16.272Z,0.90
2023-02-03T12:41:26.279Z,0.82
2023-02-03T12:44:44.450Z,0.88
2023-02-03T12:47:50.745Z,0.77
2023-02-03T12:50:59.480Z,1.75
2023-02-03T12:54:16.351Z,0.90
2023-02-03T12:57:20.676Z,0.93
2023-02-03T13:00:50.309Z,1.15
2023-02-03T13:04:29.091Z,1.15
2023-02-03T13:07:40.550Z,1.00
2023-02-03T13:10:50.042Z,1.10
2023-02-03T13:14:05.767Z,1.05
2023-02-03T13:17:17.189Z,1.15
2023-02-03T13:20:29.116Z,1.20
2023-02-03T13:23:31.681Z,1.05
2023-02-03T13:26:54.906Z,1.13
2023-02-03T13:30:22.779Z,0.93
2023-02-03T13:33:44.528Z,0.70
2023-02-03T13:37:24.161Z,0.88
2023-02-03T13:40:37.556Z,1.00
2023-02-03T13:43:44.700Z,1.15
2023-02-03T13:46:51.277Z,1.23
2023-02-03T13:49:59.856Z,0.80
2023-02-03T13:53:20.921Z,1.13
2023-02-03T13:56:28.712Z,1.20
2023-02-03T13:59:44.982Z,0.93
2023-02-03T14:02:54.296Z,1.45
2023-02-03T14:06:01.586Z,1.10
2023-02-03T14:09:20.547Z,1.00
2023-02-03T14:12:33.321Z,1.00
2023-02-03T14:15:36.442Z,1.35
2023-02-03T14:18:45.936Z,1.13
2023-02-03T14:21:55.416Z,1.00
2023-02-03T14:25:04.278Z,1.33
2023-02-03T14:28:10.756Z,1.52
2023-02-03T14:31:19.180Z,1.30
2023-02-03T14:34:31.121Z,1.58
2023-02-03T14:37:32.822Z,1.25
2023-02-03T14:40:54.927Z,1.55
2023-02-03T14:44:24.952Z,1.98
2023-02-03T14:47:32.633Z,1.60
2023-02-03T14:50:50.606Z,2.40
2023-02-03T14:53:52.066Z,1.48
2023-02-03T14:57:15.937Z,2.13
2023-02-03T15:00:20.626Z,1.55
2023-02-03T15:03:27.968Z,1.20
2023-02-03T15:06:40.362Z,1.33
2023-02-03T15:09:48.223Z,1.50
2023-02-03T15:12:52.608Z,1.80
2023-02-03T15:16:04.885Z,1.63
2023-02-03T15:19:17.119Z,1.27
2023-02-03T15:22:29.574Z,1.27
2023-02-03T15:25:32.903Z,1.63
2023-02-03T15:28:34.375Z,0.90
2023-02-03T15:31:43.767Z,1.10
2023-02-03T15:34:49.310Z,1.55
2023-02-03T15:38:00.724Z,1.23
2023-02-03T15:41:06.732Z,1.88
2023-02-03T15:44:17.133Z,2.08
2023-02-03T15:47:29.518Z,1.20
2023-02-03T15:50:36.868Z,1.58
2023-02-03T15:53:47.935Z,1.50
2023-02-03T15:57:02.053Z,1.30
2023-02-03T16:00:26.255Z,1.33
2023-02-03T16:03:39.048Z,1.60
2023-02-03T16:06:44.906Z,2.22
2023-02-03T16:09:46.737Z,2.28
2023-02-03T16:12:48.244Z,1.80
2023-02-03T16:16:08.315Z,2.67
2023-02-03T16:19:20.363Z,3.03
2023-02-03T16:22:38.548Z,2.83
2023-02-03T16:25:39.992Z,3.15
2023-02-03T16:29:00.071Z,3.25
2023-02-03T16:32:19.894Z,2.08
2023-02-03T16:35:40.377Z,2.20
2023-02-03T16:39:08.224Z,1.90
2023-02-03T16:42:35.690Z,1.40
2023-02-03T16:45:55.685Z,1.40
2023-02-03T16:49:15.686Z,1.60
2023-02-03T16:52:17.142Z,1.70
2023-02-03T16:55:18.766Z,1.88
2023-02-03T16:58:20.478Z,1.25
2023-02-03T17:01:22.058Z,1.35
2023-02-03T17:04:23.667Z,1.15
2023-02-03T17:07:25.118Z,1.60
2023-02-03T17:10:27.305Z,1.45
2023-02-03T17:13:28.863Z,1.33
2023-02-03T17:16:31.193Z,1.58
2023-02-03T17:19:32.772Z,1.80
2023-02-03T17:22:34.836Z,2.08
2023-02-03T17:25:37.548Z,1.65
2023-02-03T17:28:40.375Z,2.10
2023-02-03T17:31:42.029Z,1.30
2023-02-03T17:34:44.259Z,2.58
2023-02-03T17:37:45.702Z,4.03
2023-02-03T17:58:46.326Z,2.90
2023-02-03T18:01:47.852Z,2.90
2023-02-03T18:04:49.342Z,2.25
2023-02-03T18:07:50.865Z,2.53
2023-02-03T18:10:52.419Z,2.45
2023-02-03T18:13:53.929Z,3.40
2023-02-03T18:16:55.447Z,2.90
2023-02-03T18:19:58.995Z,1.90
2023-02-03T18:23:00.524Z,3.03
2023-02-03T18:26:02.419Z,1.90
2023-02-03T18:29:05.606Z,2.47
2023-02-03T18:32:07.153Z,2.22
2023-02-03T18:35:13.018Z,2.65
2023-02-03T18:38:14.883Z,2.47
2023-02-03T18:41:19.868Z,2.85
2023-02-03T18:44:21.526Z,3.33
2023-02-03T18:47:22.978Z,2.30
2023-02-03T18:50:25.569Z,2.03
2023-02-03T18:53:27.017Z,5.70
2023-02-03T18:56:35.095Z,2.58
2023-02-03T18:59:36.745Z,4.38
2023-02-03T19:02:38.345Z,2.50
2023-02-03T19:05:40.813Z,2.67
2023-02-03T19:08:42.539Z,2.47
2023-02-03T19:11:44.608Z,2.85
2023-02-03T19:14:46.250Z,2.70
2023-02-03T19:17:47.762Z,2.58
2023-02-03T19:20:49.246Z,2.20
2023-02-03T19:23:50.726Z,2.58
2023-02-03T19:26:52.709Z,2.65
2023-02-03T19:29:54.133Z,2.80
2023-02-03T19:32:55.589Z,2.22
2023-02-03T19:35:57.433Z,2.85
2023-02-03T19:38:58.887Z,2.88
2023-02-03T19:42:00.844Z,3.17
2023-02-03T19:45:02.300Z,2.85
2023-02-03T19:48:04.066Z,2.78
2023-02-03T19:51:07.092Z,3.00
2023-02-03T19:54:12.239Z,2.20
2023-02-03T19:57:13.762Z,2.28
2023-02-03T20:00:15.973Z,2.85
2023-02-03T20:03:19.662Z,2.58
2023-02-03T20:06:21.349Z,2.40
2023-02-03T20:09:22.961Z,2.83
2023-02-03T20:12:24.474Z,1.88
2023-02-03T20:15:26.811Z,2.47
2023-02-03T20:18:28.262Z,1.95
2023-02-03T20:21:30.299Z,2.83
2023-02-03T20:24:31.748Z,2.72
2023-02-03T20:27:33.188Z,2.72
2023-02-03T20:30:35.044Z,2.58
2023-02-03T20:33:36.514Z,2.13
2023-02-03T20:36:38.395Z,1.98
2023-02-03T20:39:40.108Z,2.15
2023-02-03T20:42:41.642Z,2.03
2023-02-03T20:45:44.071Z,2.67
2023-02-03T20:48:45.710Z,1.95
2023-02-03T20:51:47.368Z,2.20
2023-02-03T20:54:48.954Z,1.77
2023-02-03T20:57:51.541Z,2.08
2023-02-03T21:00:53.390Z,2.03
2023-02-03T21:04:13.205Z,2.20
2023-02-03T21:07:18.029Z,2.00
2023-02-03T21:10:22.106Z,1.80
2023-02-03T21:13:26.987Z,1.50
2023-02-03T21:16:37.558Z,3.17
2023-02-03T21:19:39.062Z,1.52
2023-02-03T21:22:40.480Z,2.03
2023-02-03T21:25:41.957Z,2.90
2023-02-03T21:28:43.581Z,2.03
2023-02-03T21:31:45.311Z,3.17
2023-02-03T21:34:47.970Z,3.40
2023-02-03T21:37:49.507Z,2.55
2023-02-03T21:40:51.267Z,2.35
2023-02-03T21:43:58.380Z,2.35
2023-02-03T21:47:05.212Z,2.13
2023-02-03T21:50:31.020Z,2.42
2023-02-03T21:53:35.938Z,3.17
2023-02-03T21:56:40.448Z,2.45
2023-02-03T22:02:59.430Z,2.65
2023-02-03T22:06:03.983Z,2.70
2023-02-03T22:09:06.137Z,2.63
2023-02-03T22:12:07.972Z,2.45
2023-02-03T22:15:09.755Z,2.33
2023-02-03T22:18:11.313Z,2.72
2023-02-03T22:21:13.289Z,3.40
2023-02-03T22:24:14.800Z,3.03
2023-02-03T22:27:16.256Z,2.53
2023-02-03T22:30:18.188Z,2.78
2023-02-03T22:33:19.653Z,2.85
2023-02-03T22:36:23.334Z,2.90
2023-02-03T22:39:24.829Z,3.20
2023-02-03T22:42:26.410Z,3.05
2023-02-03T22:45:27.872Z,3.53
2023-02-03T22:48:29.419Z,2.83
2023-02-03T22:51:30.913Z,2.38
2023-02-03T22:54:32.682Z,2.60
2023-02-03T22:57:34.981Z,3.05
2023-02-03T23:00:36.523Z,2.75
2023-02-03T23:03:38.102Z,3.15
2023-02-03T23:06:39.610Z,2.55
2023-02-03T23:09:41.189Z,2.85
2023-02-03T23:12:42.662Z,2.83
2023-02-03T23:15:44.231Z,3.00
2023-02-03T23:18:46.003Z,3.00
2023-02-03T23:21:47.503Z,3.30
2023-02-03T23:24:48.929Z,2.85
2023-02-03T23:27:50.525Z,2.60
2023-02-03T23:30:52.099Z,2.67
2023-02-03T23:34:12.075Z,2.63
2023-02-03T23:37:13.592Z,2.35
2023-02-03T23:40:15.255Z,2.50
2023-02-03T23:43:16.863Z,2.47
2023-02-03T23:46:18.394Z,2.03
2023-02-03T23:49:19.910Z,2.38
2023-02-03T23:52:21.420Z,2.17
2023-02-03T23:55:23.512Z,2.10
2023-02-03T23:58:25.271Z,1.83
